sensor_id;sensor_type;location;lat;lon;timestamp;temperature;humidity
16388;DHT22;8303;53.446;9.988;2022-12-07T05:46:54;2.20;1.00
16388;DHT22;8303;53.446;9.988;2022-12-07T05:49:25;2.40;1.00
16388;DHT22;8303;53.446;9.988;2022-12-07T05:51:52;2.20;1.00
16388;DHT22;8303;53.446;9.988;2022-12-07T05:54:20;2.20;1.00
16388;DHT22;8303;53.446;9.988;2022-12-07T05:56:56;2.20;1.00
16388;DHT22;8303;53.446;9.988;2022-12-07T05:59:23;2.30;1.00
16388;DHT22;8303;53.446;9.988;2022-12-07T06:01:59;2.20;1.00
16388;DHT22;8303;53.446;9.988;2022-12-07T06:04:30;2.20;1.00
16388;DHT22;8303;53.446;9.988;2022-12-07T06:06:57;2.20;1.00
16388;DHT22;8303;53.446;9.988;2022-12-07T06:09:26;2.20;1.00
16388;DHT22;8303;53.446;9.988;2022-12-07T06:11:56;2.20;1.00
16388;DHT22;8303;53.446;9.988;2022-12-07T06:14:41;2.20;1.00
16388;DHT22;8303;53.446;9.988;2022-12-07T06:17:11;2.30;1.00
16388;DHT22;8303;53.446;9.988;2022-12-07T06:19:39;2.60;1.00
16388;DHT22;8303;53.446;9.988;2022-12-07T06:22:09;2.50;1.00
16388;DHT22;8303;53.446;9.988;2022-12-07T06:24:37;2.70;1.00
16388;DHT22;8303;53.446;9.988;2022-12-07T06:27:05;2.70;1.00
16388;DHT22;8303;53.446;9.988;2022-12-07T06:29:37;2.70;1.00
16388;DHT22;8303;53.446;9.988;2022-12-07T06:32:09;2.50;1.00
16388;DHT22;8303;53.446;9.988;2022-12-07T06:34:38;2.40;1.00
16388;DHT22;8303;53.446;9.988;2022-12-07T06:37:06;2.40;1.00
16388;DHT22;8303;53.446;9.988;2022-12-07T06:39:33;2.30;1.00
16388;DHT22;8303;53.446;9.988;2022-12-07T06:42:00;2.30;1.00
16388;DHT22;8303;53.446;9.988;2022-12-07T06:44:27;2.40;1.00
16388;DHT22;8303;53.446;9.988;2022-12-07T06:46:55;2.30;1.00
16388;DHT22;8303;53.446;9.988;2022-12-07T06:49:24;2.30;1.00
16388;DHT22;8303;53.446;9.988;2022-12-07T06:51:51;2.20;1.00
16388;DHT22;8303;53.446;9.988;2022-12-07T06:54:18;2.30;1.00
16388;DHT22;8303;53.446;9.988;2022-12-07T06:56:46;2.30;1.00
16388;DHT22;8303;53.446;9.988;2022-12-07T06:59:13;2.30;1.00
16388;DHT22;8303;53.446;9.988;2022-12-07T07:01:45;2.30;1.00
16388;DHT22;8303;53.446;9.988;2022-12-07T07:04:13;2.30;1.00
16388;DHT22;8303;53.446;9.988;2022-12-07T07:06:42;2.30;5.40
16388;DHT22;8303;53.446;9.988;2022-12-07T07:09:09;2.30;48.90
16388;DHT22;8303;53.446;9.988;2022-12-07T07:11:36;2.30;66.70
16388;DHT22;8303;53.446;9.988;2022-12-07T07:14:03;2.30;91.60
16388;DHT22;8303;53.446;9.988;2022-12-07T07:16:30;2.40;75.40
16388;DHT22;8303;53.446;9.988;2022-12-07T07:18:58;2.40;29.80
16388;DHT22;8303;53.446;9.988;2022-12-07T07:21:25;2.40;1.00
16388;DHT22;8303;53.446;9.988;2022-12-07T07:23:54;2.30;1.00
16388;DHT22;8303;53.446;9.988;2022-12-07T07:26:23;2.50;1.00
16388;DHT22;8303;53.446;9.988;2022-12-07T07:28:51;2.60;1.00
16388;DHT22;8303;53.446;9.988;2022-12-07T07:31:18;2.70;1.00
16388;DHT22;8303;53.446;9.988;2022-12-07T07:33:45;2.50;1.00
16388;DHT22;8303;53.446;9.988;2022-12-07T07:36:13;2.60;1.00
16388;DHT22;8303;53.446;9.988;2022-12-07T07:38:40;2.60;1.00
16388;DHT22;8303;53.446;9.988;2022-12-07T07:41:09;2.60;1.00
16388;DHT22;8303;53.446;9.988;2022-12-07T07:43:39;2.60;1.00
16388;DHT22;8303;53.446;9.988;2022-12-07T07:46:06;2.60;1.00
16388;DHT22;8303;53.446;9.988;2022-12-07T07:48:33;2.60;1.00
16388;DHT22;8303;53.446;9.988;2022-12-07T07:51:00;2.60;1.00
16388;DHT22;8303;53.446;9.988;2022-12-07T07:53:27;2.70;1.00
16388;DHT22;8303;53.446;9.988;2022-12-07T07:55:54;2.70;1.00
16388;DHT22;8303;53.446;9.988;2022-12-07T07:58:23;2.70;1.00
16388;DHT22;8303;53.446;9.988;2022-12-07T08:00:51;2.80;1.00
16388;DHT22;8303;53.446;9.988;2022-12-07T08:03:18;2.80;1.00
16388;DHT22;8303;53.446;9.988;2022-12-07T08:05:45;2.80;1.00
16388;DHT22;8303;53.446;9.988;2022-12-07T08:08:12;3.00;1.00
16388;DHT22;8303;53.446;9.988;2022-12-07T08:10:40;2.80;1.00
16388;DHT22;8303;53.446;9.988;2022-12-07T08:13:07;2.90;1.00
16388;DHT22;8303;53.446;9.988;2022-12-07T08:15:43;2.80;1.00
16388;DHT22;8303;53.446;9.988;2022-12-07T08:18:11;2.80;1.00
16388;DHT22;8303;53.446;9.988;2022-12-07T08:20:39;2.80;1.00
16388;DHT22;8303;53.446;9.988;2022-12-07T08:23:07;2.80;1.00
16388;DHT22;8303;53.446;9.988;2022-12-07T08:25:37;2.80;1.00
16388;DHT22;8303;53.446;9.988;2022-12-07T08:28:04;2.90;1.00
16388;DHT22;8303;53.446;9.988;2022-12-07T08:30:32;3.00;1.00
16388;DHT22;8303;53.446;9.988;2022-12-07T08:33:00;3.00;1.00
16388;DHT22;8303;53.446;9.988;2022-12-07T08:35:28;3.00;1.00
16388;DHT22;8303;53.446;9.988;2022-12-07T08:37:54;3.00;1.00
16388;DHT22;8303;53.446;9.988;2022-12-07T08:40:23;3.10;1.00
16388;DHT22;8303;53.446;9.988;2022-12-07T08:42:51;3.10;1.00
16388;DHT22;8303;53.446;9.988;2022-12-07T08:45:19;3.20;1.00
16388;DHT22;8303;53.446;9.988;2022-12-07T08:47:50;3.20;1.00
16388;DHT22;8303;53.446;9.988;2022-12-07T08:50:20;3.20;1.00
16388;DHT22;8303;53.446;9.988;2022-12-07T08:52:49;3.30;1.00
16388;DHT22;8303;53.446;9.988;2022-12-07T08:55:17;3.30;1.00
16388;DHT22;8303;53.446;9.988;2022-12-07T08:57:45;3.30;1.00
16388;DHT22;8303;53.446;9.988;2022-12-07T09:00:15;3.40;1.00
16388;DHT22;8303;53.446;9.988;2022-12-07T09:02:43;3.50;1.00
16388;DHT22;8303;53.446;9.988;2022-12-07T09:05:11;3.50;1.00
16388;DHT22;8303;53.446;9.988;2022-12-07T09:07:42;3.60;1.00
16388;DHT22;8303;53.446;9.988;2022-12-07T09:10:10;3.60;1.00
16388;DHT22;8303;53.446;9.988;2022-12-07T09:12:38;3.60;1.00
16388;DHT22;8303;53.446;9.988;2022-12-07T09:15:05;3.70;99.90
16388;DHT22;8303;53.446;9.988;2022-12-07T09:17:33;3.70;99.90
16388;DHT22;8303;53.446;9.988;2022-12-07T09:20:02;3.80;99.90
16388;DHT22;8303;53.446;9.988;2022-12-07T09:22:34;3.80;99.90
16388;DHT22;8303;53.446;9.988;2022-12-07T09:25:09;3.90;99.90
16388;DHT22;8303;53.446;9.988;2022-12-07T09:27:36;3.80;99.90
16388;DHT22;8303;53.446;9.988;2022-12-07T09:30:04;3.90;99.90
16388;DHT22;8303;53.446;9.988;2022-12-07T09:32:31;3.80;99.90
16388;DHT22;8303;53.446;9.988;2022-12-07T09:34:59;3.90;99.90
16388;DHT22;8303;53.446;9.988;2022-12-07T09:37:26;3.80;99.90
16388;DHT22;8303;53.446;9.988;2022-12-07T09:39:55;3.80;99.90
16388;DHT22;8303;53.446;9.988;2022-12-07T09:42:29;3.80;99.90
16388;DHT22;8303;53.446;9.988;2022-12-07T09:44:58;3.80;99.90
16388;DHT22;8303;53.446;9.988;2022-12-07T09:47:26;3.90;99.90
16388;DHT22;8303;53.446;9.988;2022-12-07T09:49:57;3.90;99.90
16388;DHT22;8303;53.446;9.988;2022-12-07T09:52:27;3.90;99.90
16388;DHT22;8303;53.446;9.988;2022-12-07T09:54:55;3.90;99.90
16388;DHT22;8303;53.446;9.988;2022-12-07T09:57:29;4.00;99.90
16388;DHT22;8303;53.446;9.988;2022-12-07T10:00:00;4.00;99.90
16388;DHT22;8303;53.446;9.988;2022-12-07T10:02:38;3.90;99.90
16388;DHT22;8303;53.446;9.988;2022-12-07T10:05:12;4.10;99.90
16388;DHT22;8303;53.446;9.988;2022-12-07T10:07:40;4.20;99.90
16388;DHT22;8303;53.446;9.988;2022-12-07T10:10:15;4.20;1.00
16388;DHT22;8303;53.446;9.988;2022-12-07T10:12:56;4.20;1.00
16388;DHT22;8303;53.446;9.988;2022-12-07T10:15:42;4.20;1.00
16388;DHT22;8303;53.446;9.988;2022-12-07T10:18:30;4.20;1.00
16388;DHT22;8303;53.446;9.988;2022-12-07T10:21:12;4.20;1.00
16388;DHT22;8303;53.446;9.988;2022-12-07T10:23:41;4.20;1.00
16388;DHT22;8303;53.446;9.988;2022-12-07T10:26:29;4.20;1.00
16388;DHT22;8303;53.446;9.988;2022-12-07T10:28:59;4.20;1.00
16388;DHT22;8303;53.446;9.988;2022-12-07T10:31:27;4.20;1.00
16388;DHT22;8303;53.446;9.988;2022-12-07T10:33:56;4.10;1.00
16388;DHT22;8303;53.446;9.988;2022-12-07T10:36:25;4.00;1.00
16388;DHT22;8303;53.446;9.988;2022-12-07T10:38:58;4.00;1.00
16388;DHT22;8303;53.446;9.988;2022-12-07T10:41:26;4.00;1.00
16388;DHT22;8303;53.446;9.988;2022-12-07T10:43:55;4.00;1.00
16388;DHT22;8303;53.446;9.988;2022-12-07T10:46:48;4.10;1.00
16388;DHT22;8303;53.446;9.988;2022-12-07T10:49:37;4.10;1.00
16388;DHT22;8303;53.446;9.988;2022-12-07T10:52:10;4.30;1.00
16388;DHT22;8303;53.446;9.988;2022-12-07T10:54:47;4.20;1.00
16388;DHT22;8303;53.446;9.988;2022-12-07T10:57:29;4.20;1.00
16388;DHT22;8303;53.446;9.988;2022-12-07T11:00:08;4.10;1.00
16388;DHT22;8303;53.446;9.988;2022-12-07T11:02:59;4.10;1.00
16388;DHT22;8303;53.446;9.988;2022-12-07T11:05:39;4.10;1.00
16388;DHT22;8303;53.446;9.988;2022-12-07T11:08:19;4.10;1.00
16388;DHT22;8303;53.446;9.988;2022-12-07T11:10:53;4.10;1.00
16388;DHT22;8303;53.446;9.988;2022-12-07T11:13:31;4.10;1.00
16388;DHT22;8303;53.446;9.988;2022-12-07T11:19:16;4.10;1.00
16388;DHT22;8303;53.446;9.988;2022-12-07T11:21:50;4.10;1.00
16388;DHT22;8303;53.446;9.988;2022-12-07T11:24:19;4.20;1.00
16388;DHT22;8303;53.446;9.988;2022-12-07T11:27:04;4.10;1.00
16388;DHT22;8303;53.446;9.988;2022-12-07T11:29:50;4.20;8.50
16388;DHT22;8303;53.446;9.988;2022-12-07T11:32:32;4.20;18.20
16388;DHT22;8303;53.446;9.988;2022-12-07T11:35:11;4.10;35.20
16388;DHT22;8303;53.446;9.988;2022-12-07T11:37:41;4.10;69.40
16388;DHT22;8303;53.446;9.988;2022-12-07T11:40:17;4.20;99.90
16388;DHT22;8303;53.446;9.988;2022-12-07T11:42:54;4.20;95.60
16388;DHT22;8303;53.446;9.988;2022-12-07T11:45:26;4.20;98.00
16388;DHT22;8303;53.446;9.988;2022-12-07T11:47:59;4.20;4.80
16388;DHT22;8303;53.446;9.988;2022-12-07T11:50:33;4.30;12.80
16388;DHT22;8303;53.446;9.988;2022-12-07T11:53:09;4.20;1.00
16388;DHT22;8303;53.446;9.988;2022-12-07T11:55:42;4.20;5.50
16388;DHT22;8303;53.446;9.988;2022-12-07T11:58:33;4.20;1.00
16388;DHT22;8303;53.446;9.988;2022-12-07T12:01:12;4.10;1.00
16388;DHT22;8303;53.446;9.988;2022-12-07T12:03:44;4.10;1.00
16388;DHT22;8303;53.446;9.988;2022-12-07T12:06:13;4.10;1.00
16388;DHT22;8303;53.446;9.988;2022-12-07T12:08:43;4.10;1.00
16388;DHT22;8303;53.446;9.988;2022-12-07T12:11:25;4.20;1.00
16388;DHT22;8303;53.446;9.988;2022-12-07T12:14:29;4.20;1.00
16388;DHT22;8303;53.446;9.988;2022-12-07T12:17:20;4.30;1.00
16388;DHT22;8303;53.446;9.988;2022-12-07T12:20:00;4.30;1.00
16388;DHT22;8303;53.446;9.988;2022-12-07T12:22:34;4.30;1.00
16388;DHT22;8303;53.446;9.988;2022-12-07T12:25:05;4.40;1.00
16388;DHT22;8303;53.446;9.988;2022-12-07T12:27:34;4.30;1.00
16388;DHT22;8303;53.446;9.988;2022-12-07T12:30:05;4.30;1.00
16388;DHT22;8303;53.446;9.988;2022-12-07T12:32:37;4.40;1.00
16388;DHT22;8303;53.446;9.988;2022-12-07T12:35:27;4.50;1.00
16388;DHT22;8303;53.446;9.988;2022-12-07T12:38:26;4.50;1.00
16388;DHT22;8303;53.446;9.988;2022-12-07T12:40:54;4.50;1.00
16388;DHT22;8303;53.446;9.988;2022-12-07T12:43:54;4.50;1.00
16388;DHT22;8303;53.446;9.988;2022-12-07T12:46:51;4.50;1.00
16388;DHT22;8303;53.446;9.988;2022-12-07T12:49:42;4.60;1.00
16388;DHT22;8303;53.446;9.988;2022-12-07T12:55:22;4.50;40.60
16388;DHT22;8303;53.446;9.988;2022-12-07T12:58:32;4.40;22.00
16388;DHT22;8303;53.446;9.988;2022-12-07T13:07:56;4.40;15.20
16388;DHT22;8303;53.446;9.988;2022-12-07T13:10:38;4.50;30.70
16388;DHT22;8303;53.446;9.988;2022-12-07T13:13:34;4.50;1.00
16388;DHT22;8303;53.446;9.988;2022-12-07T13:16:36;4.50;1.00
16388;DHT22;8303;53.446;9.988;2022-12-07T13:25:29;4.40;1.00
16388;DHT22;8303;53.446;9.988;2022-12-07T13:28:00;4.40;1.00
16388;DHT22;8303;53.446;9.988;2022-12-07T13:30:29;4.30;1.00
16388;DHT22;8303;53.446;9.988;2022-12-07T13:32:58;4.20;1.00
16388;DHT22;8303;53.446;9.988;2022-12-07T13:35:33;4.20;1.00
16388;DHT22;8303;53.446;9.988;2022-12-07T13:38:04;4.10;1.00
16388;DHT22;8303;53.446;9.988;2022-12-07T13:40:33;4.10;1.00
16388;DHT22;8303;53.446;9.988;2022-12-07T13:43:01;4.10;1.00
16388;DHT22;8303;53.446;9.988;2022-12-07T13:45:30;4.10;1.00
16388;DHT22;8303;53.446;9.988;2022-12-07T13:48:22;4.00;1.00
16388;DHT22;8303;53.446;9.988;2022-12-07T13:50:54;4.00;1.00
16388;DHT22;8303;53.446;9.988;2022-12-07T13:53:22;4.00;1.00
16388;DHT22;8303;53.446;9.988;2022-12-07T13:55:50;4.00;1.00
16388;DHT22;8303;53.446;9.988;2022-12-07T13:58:17;4.00;1.00
16388;DHT22;8303;53.446;9.988;2022-12-07T14:00:44;4.00;1.00
16388;DHT22;8303;53.446;9.988;2022-12-07T14:03:28;4.00;1.00
16388;DHT22;8303;53.446;9.988;2022-12-07T14:06:17;4.00;1.00
16388;DHT22;8303;53.446;9.988;2022-12-07T14:08:44;4.00;1.00
16388;DHT22;8303;53.446;9.988;2022-12-07T14:11:17;4.00;1.00
16388;DHT22;8303;53.446;9.988;2022-12-07T14:13:51;4.00;1.00
16388;DHT22;8303;53.446;9.988;2022-12-07T14:16:27;4.00;1.00
16388;DHT22;8303;53.446;9.988;2022-12-07T14:18:55;4.00;1.00
16388;DHT22;8303;53.446;9.988;2022-12-07T14:21:23;4.00;1.00
16388;DHT22;8303;53.446;9.988;2022-12-07T14:24:09;4.00;1.00
16388;DHT22;8303;53.446;9.988;2022-12-07T14:26:39;4.00;1.00
16388;DHT22;8303;53.446;9.988;2022-12-07T14:29:27;3.90;1.00
16388;DHT22;8303;53.446;9.988;2022-12-07T14:31:57;3.90;1.00
16388;DHT22;8303;53.446;9.988;2022-12-07T14:34:24;3.90;1.00
16388;DHT22;8303;53.446;9.988;2022-12-07T14:36:51;3.90;1.00
16388;DHT22;8303;53.446;9.988;2022-12-07T14:39:18;3.80;1.00
16388;DHT22;8303;53.446;9.988;2022-12-07T14:41:47;3.80;1.00
16388;DHT22;8303;53.446;9.988;2022-12-07T14:44:20;3.80;1.00
16388;DHT22;8303;53.446;9.988;2022-12-07T14:46:48;3.70;1.00
16388;DHT22;8303;53.446;9.988;2022-12-07T14:49:15;3.60;1.00
16388;DHT22;8303;53.446;9.988;2022-12-07T14:51:44;3.60;1.00
16388;DHT22;8303;53.446;9.988;2022-12-07T14:54:17;3.50;1.00
16388;DHT22;8303;53.446;9.988;2022-12-07T14:56:44;3.40;1.00
16388;DHT22;8303;53.446;9.988;2022-12-07T14:59:15;3.40;1.00
16388;DHT22;8303;53.446;9.988;2022-12-07T15:01:43;3.30;1.00
16388;DHT22;8303;53.446;9.988;2022-12-07T15:04:10;3.30;1.00
16388;DHT22;8303;53.446;9.988;2022-12-07T15:06:37;3.30;1.00
16388;DHT22;8303;53.446;9.988;2022-12-07T15:09:04;3.20;1.00
16388;DHT22;8303;53.446;9.988;2022-12-07T15:11:31;3.10;1.00
16388;DHT22;8303;53.446;9.988;2022-12-07T15:13:58;3.10;1.00
16388;DHT22;8303;53.446;9.988;2022-12-07T15:16:40;3.10;1.00
16388;DHT22;8303;53.446;9.988;2022-12-07T15:19:11;3.00;1.00
16388;DHT22;8303;53.446;9.988;2022-12-07T15:21:39;3.00;1.00
16388;DHT22;8303;53.446;9.988;2022-12-07T15:24:06;3.10;1.00
16388;DHT22;8303;53.446;9.988;2022-12-07T15:26:33;3.00;1.00
16388;DHT22;8303;53.446;9.988;2022-12-07T15:28:59;3.00;1.00
16388;DHT22;8303;53.446;9.988;2022-12-07T15:31:26;3.10;1.00
16388;DHT22;8303;53.446;9.988;2022-12-07T15:33:55;3.00;1.00
16388;DHT22;8303;53.446;9.988;2022-12-07T15:36:23;3.00;1.00
16388;DHT22;8303;53.446;9.988;2022-12-07T15:38:51;3.00;1.00
16388;DHT22;8303;53.446;9.988;2022-12-07T15:41:18;3.00;1.00
16388;DHT22;8303;53.446;9.988;2022-12-07T15:43:45;2.90;1.00
16388;DHT22;8303;53.446;9.988;2022-12-07T15:46:30;2.90;1.00
16388;DHT22;8303;53.446;9.988;2022-12-07T15:48:59;2.80;1.00
16388;DHT22;8303;53.446;9.988;2022-12-07T15:51:26;2.80;1.00
16388;DHT22;8303;53.446;9.988;2022-12-07T15:53:53;2.70;1.00
16388;DHT22;8303;53.446;9.988;2022-12-07T15:56:20;2.70;1.00
16388;DHT22;8303;53.446;9.988;2022-12-07T15:58:47;2.60;1.00
16388;DHT22;8303;53.446;9.988;2022-12-07T16:01:16;2.60;1.00
16388;DHT22;8303;53.446;9.988;2022-12-07T16:03:44;2.40;1.00
16388;DHT22;8303;53.446;9.988;2022-12-07T16:06:14;2.40;1.00
16388;DHT22;8303;53.446;9.988;2022-12-07T16:08:42;2.30;1.00
16388;DHT22;8303;53.446;9.988;2022-12-07T16:11:10;2.30;1.00
16388;DHT22;8303;53.446;9.988;2022-12-07T16:13:37;2.20;1.00
16388;DHT22;8303;53.446;9.988;2022-12-07T16:16:05;2.10;1.00
16388;DHT22;8303;53.446;9.988;2022-12-07T16:18:33;2.10;1.00
16388;DHT22;8303;53.446;9.988;2022-12-07T16:21:00;2.00;1.00
16388;DHT22;8303;53.446;9.988;2022-12-07T16:23:28;1.90;1.00
16388;DHT22;8303;53.446;9.988;2022-12-07T16:26:03;1.90;1.00
16388;DHT22;8303;53.446;9.988;2022-12-07T16:28:30;1.80;1.00
16388;DHT22;8303;53.446;9.988;2022-12-07T16:31:01;1.80;1.00
16388;DHT22;8303;53.446;9.988;2022-12-07T16:33:28;1.80;8.30
16388;DHT22;8303;53.446;9.988;2022-12-07T16:35:55;1.70;20.20
16388;DHT22;8303;53.446;9.988;2022-12-07T16:38:22;1.70;70.80
16388;DHT22;8303;53.446;9.988;2022-12-07T16:40:50;1.70;99.90
16388;DHT22;8303;53.446;9.988;2022-12-07T16:43:17;1.60;99.90
16388;DHT22;8303;53.446;9.988;2022-12-07T16:45:45;1.60;99.90
16388;DHT22;8303;53.446;9.988;2022-12-07T16:48:13;1.60;99.90
16388;DHT22;8303;53.446;9.988;2022-12-07T16:50:40;1.60;99.90
16388;DHT22;8303;53.446;9.988;2022-12-07T16:53:07;1.60;99.90
16388;DHT22;8303;53.446;9.988;2022-12-07T16:55:36;1.60;99.90
16388;DHT22;8303;53.446;9.988;2022-12-07T16:58:05;1.60;99.90
16388;DHT22;8303;53.446;9.988;2022-12-07T17:00:32;1.60;99.90
16388;DHT22;8303;53.446;9.988;2022-12-07T17:02:59;1.60;99.90
16388;DHT22;8303;53.446;9.988;2022-12-07T17:05:26;1.50;99.90
16388;DHT22;8303;53.446;9.988;2022-12-07T17:07:54;1.50;1.00
16388;DHT22;8303;53.446;9.988;2022-12-07T17:10:22;1.50;1.00
16388;DHT22;8303;53.446;9.988;2022-12-07T17:12:50;1.40;1.00
16388;DHT22;8303;53.446;9.988;2022-12-07T17:15:18;1.40;1.00
16388;DHT22;8303;53.446;9.988;2022-12-07T17:17:53;1.40;1.00
16388;DHT22;8303;53.446;9.988;2022-12-07T17:20:21;1.50;1.00
16388;DHT22;8303;53.446;9.988;2022-12-07T17:22:48;1.40;1.00
16388;DHT22;8303;53.446;9.988;2022-12-07T17:25:16;1.50;1.00
16388;DHT22;8303;53.446;9.988;2022-12-07T17:27:44;1.50;1.00
16388;DHT22;8303;53.446;9.988;2022-12-07T17:30:12;1.50;1.00
16388;DHT22;8303;53.446;9.988;2022-12-07T17:32:40;1.50;1.00
16388;DHT22;8303;53.446;9.988;2022-12-07T17:35:08;1.50;1.00
16388;DHT22;8303;53.446;9.988;2022-12-07T17:37:35;1.50;1.00
16388;DHT22;8303;53.446;9.988;2022-12-07T17:40:02;1.50;1.00
16388;DHT22;8303;53.446;9.988;2022-12-07T17:42:30;1.50;1.00
16388;DHT22;8303;53.446;9.988;2022-12-07T17:45:06;1.50;1.00
16388;DHT22;8303;53.446;9.988;2022-12-07T17:47:34;1.50;1.00
16388;DHT22;8303;53.446;9.988;2022-12-07T17:50:03;1.50;1.00
16388;DHT22;8303;53.446;9.988;2022-12-07T17:52:30;1.50;1.00
16388;DHT22;8303;53.446;9.988;2022-12-07T17:55:14;1.50;1.00
16388;DHT22;8303;53.446;9.988;2022-12-07T17:57:42;1.50;1.00
16388;DHT22;8303;53.446;9.988;2022-12-07T18:00:09;1.40;1.00
16388;DHT22;8303;53.446;9.988;2022-12-07T18:02:37;1.40;1.00
16388;DHT22;8303;53.446;9.988;2022-12-07T18:05:06;1.30;6.80
16388;DHT22;8303;53.446;9.988;2022-12-07T18:07:33;1.30;47.80
16388;DHT22;8303;53.446;9.988;2022-12-07T18:10:00;1.30;43.70
16388;DHT22;8303;53.446;9.988;2022-12-07T18:12:27;1.30;60.90
16388;DHT22;8303;53.446;9.988;2022-12-07T18:14:54;1.20;74.50
16388;DHT22;8303;53.446;9.988;2022-12-07T18:17:21;1.20;99.90
16388;DHT22;8303;53.446;9.988;2022-12-07T18:19:48;1.10;99.90
16388;DHT22;8303;53.446;9.988;2022-12-07T18:22:17;1.10;99.90
16388;DHT22;8303;53.446;9.988;2022-12-07T18:24:45;1.10;99.90
16388;DHT22;8303;53.446;9.988;2022-12-07T18:27:13;1.10;99.90
16388;DHT22;8303;53.446;9.988;2022-12-07T18:29:40;1.20;1.00
16388;DHT22;8303;53.446;9.988;2022-12-07T18:32:07;1.10;1.00
16388;DHT22;8303;53.446;9.988;2022-12-07T18:34:34;1.10;1.00
16388;DHT22;8303;53.446;9.988;2022-12-07T18:37:02;1.10;1.00
16388;DHT22;8303;53.446;9.988;2022-12-07T18:39:33;1.10;1.00
16388;DHT22;8303;53.446;9.988;2022-12-07T18:42:04;1.10;1.00
16388;DHT22;8303;53.446;9.988;2022-12-07T18:44:31;1.10;1.00
16388;DHT22;8303;53.446;9.988;2022-12-07T18:46:58;1.00;1.00
16388;DHT22;8303;53.446;9.988;2022-12-07T18:49:26;1.00;1.00
16388;DHT22;8303;53.446;9.988;2022-12-07T18:51:53;1.00;1.00
16388;DHT22;8303;53.446;9.988;2022-12-07T18:54:20;1.00;1.00
16388;DHT22;8303;53.446;9.988;2022-12-07T18:56:48;1.00;1.00
16388;DHT22;8303;53.446;9.988;2022-12-07T18:59:15;0.90;1.00
16388;DHT22;8303;53.446;9.988;2022-12-07T19:02:00;0.80;1.00
16388;DHT22;8303;53.446;9.988;2022-12-07T19:04:27;0.70;1.00
16388;DHT22;8303;53.446;9.988;2022-12-07T19:06:54;0.70;1.00
16388;DHT22;8303;53.446;9.988;2022-12-07T19:09:21;0.60;1.00
16388;DHT22;8303;53.446;9.988;2022-12-07T19:11:49;0.50;1.00
16388;DHT22;8303;53.446;9.988;2022-12-07T19:14:19;0.40;1.00
16388;DHT22;8303;53.446;9.988;2022-12-07T19:16:48;0.40;1.00
16388;DHT22;8303;53.446;9.988;2022-12-07T19:19:16;0.40;1.00
16388;DHT22;8303;53.446;9.988;2022-12-07T19:21:43;0.40;1.00
16388;DHT22;8303;53.446;9.988;2022-12-07T19:24:11;0.40;1.00
16388;DHT22;8303;53.446;9.988;2022-12-07T19:26:38;0.30;1.00
16388;DHT22;8303;53.446;9.988;2022-12-07T19:29:07;0.30;1.00
16388;DHT22;8303;53.446;9.988;2022-12-07T19:31:35;0.30;1.00
16388;DHT22;8303;53.446;9.988;2022-12-07T19:34:07;0.30;1.00
16388;DHT22;8303;53.446;9.988;2022-12-07T19:36:34;0.30;1.00
16388;DHT22;8303;53.446;9.988;2022-12-07T19:39:01;0.30;1.00
16388;DHT22;8303;53.446;9.988;2022-12-07T19:41:29;0.20;1.00
16388;DHT22;8303;53.446;9.988;2022-12-07T19:44:05;0.20;1.00
16388;DHT22;8303;53.446;9.988;2022-12-07T19:46:34;0.20;1.00
16388;DHT22;8303;53.446;9.988;2022-12-07T19:49:01;0.20;1.00
16388;DHT22;8303;53.446;9.988;2022-12-07T19:51:29;0.20;1.00
16388;DHT22;8303;53.446;9.988;2022-12-07T19:53:57;0.20;1.00
16388;DHT22;8303;53.446;9.988;2022-12-07T19:56:25;0.20;1.00
16388;DHT22;8303;53.446;9.988;2022-12-07T19:58:53;0.30;1.00
16388;DHT22;8303;53.446;9.988;2022-12-07T20:01:21;0.30;1.00
16388;DHT22;8303;53.446;9.988;2022-12-07T20:03:49;0.30;1.00
16388;DHT22;8303;53.446;9.988;2022-12-07T20:06:18;0.30;1.00
16388;DHT22;8303;53.446;9.988;2022-12-07T20:08:46;0.30;1.00
16388;DHT22;8303;53.446;9.988;2022-12-07T20:11:14;0.30;1.00
16388;DHT22;8303;53.446;9.988;2022-12-07T20:13:59;0.30;1.00
16388;DHT22;8303;53.446;9.988;2022-12-07T20:16:26;0.30;1.00
16388;DHT22;8303;53.446;9.988;2022-12-07T20:18:55;0.40;1.00
16388;DHT22;8303;53.446;9.988;2022-12-07T20:21:23;0.40;1.00
16388;DHT22;8303;53.446;9.988;2022-12-07T20:23:51;0.40;1.00
16388;DHT22;8303;53.446;9.988;2022-12-07T20:26:18;0.50;1.00
16388;DHT22;8303;53.446;9.988;2022-12-07T20:28:46;0.50;1.00
16388;DHT22;8303;53.446;9.988;2022-12-07T20:31:13;0.50;1.00
16388;DHT22;8303;53.446;9.988;2022-12-07T20:33:41;0.50;1.00
16388;DHT22;8303;53.446;9.988;2022-12-07T20:36:13;0.50;1.00
16388;DHT22;8303;53.446;9.988;2022-12-07T20:38:40;0.60;1.00
16388;DHT22;8303;53.446;9.988;2022-12-07T20:41:10;0.70;1.00
16388;DHT22;8303;53.446;9.988;2022-12-07T20:43:58;0.80;1.00
16388;DHT22;8303;53.446;9.988;2022-12-07T20:46:24;0.80;1.00
16388;DHT22;8303;53.446;9.988;2022-12-07T20:48:52;0.80;1.00
16388;DHT22;8303;53.446;9.988;2022-12-07T20:51:20;0.90;1.00
16388;DHT22;8303;53.446;9.988;2022-12-07T20:53:47;0.90;1.00
16388;DHT22;8303;53.446;9.988;2022-12-07T20:56:19;1.00;1.00
16388;DHT22;8303;53.446;9.988;2022-12-07T20:58:46;1.10;1.00
16388;DHT22;8303;53.446;9.988;2022-12-07T21:01:14;1.10;1.00
16388;DHT22;8303;53.446;9.988;2022-12-07T21:03:41;1.10;1.00
16388;DHT22;8303;53.446;9.988;2022-12-07T21:06:11;1.20;1.00
16388;DHT22;8303;53.446;9.988;2022-12-07T21:08:44;1.30;1.00
16388;DHT22;8303;53.446;9.988;2022-12-07T21:11:12;1.40;1.00
16388;DHT22;8303;53.446;9.988;2022-12-07T21:13:39;1.40;1.00
16388;DHT22;8303;53.446;9.988;2022-12-07T21:16:08;1.40;1.00
16388;DHT22;8303;53.446;9.988;2022-12-07T21:18:35;1.40;1.00
16388;DHT22;8303;53.446;9.988;2022-12-07T21:21:03;1.50;1.00
16388;DHT22;8303;53.446;9.988;2022-12-07T21:23:31;1.50;1.00
16388;DHT22;8303;53.446;9.988;2022-12-07T21:26:00;1.50;1.00
16388;DHT22;8303;53.446;9.988;2022-12-07T21:28:27;1.50;1.00
